Das europäische

Eingangstor zur

Zentralschweiz

Luftfahrt im Land

der Flugzeugbauer

Aviatik Kompetenzen

mit langer Tradition

Flugbasis für Arbeits- und

Geschäftsflüge mit hoher Priorität

METAR

LSZC 130950Z AUTO 06004KT CAVOK 17/09 Q1030

 

TAF

TAF LSZC 121905Z 1219/1224 CNL

TAF LSMA 130925Z 1310/1416 VRB02KT CAVOK PROB30 1410/1416 06010KT= TAF LSMD 130925Z 1310/1416 VRB02KT CAVOK PROB30 1403/1406 3000 MIFG NSC

SR / SS

METEO

NOTAM

B0444/24 B0444/24
Q) LSAS/QFALC/IV/NBO/A/000/999/4658N00824E005
A) LSZC
B) 2406241515
C) 2406272159D) 1515-2159
E) AD CLSD EXC HEL OPS.
CREATED: 28 Mar 2024 09:34:00

B0443/24 B0443/24
Q) LSAS/QFALC/IV/NBO/A/000/999/4658N00824E005
A) LSZC
B) 2404171515
C) 2404172159
E) AD CLSD EXC HEL OPS.
CREATED: 28 Mar 2024 09:28:00

B0348/24 B0348/24
Q) LSAS/QFALC/IV/NBO/A/000/999/4658N00824E005
A) LSZC
B) 2406071000
C) 2406101115
E) AD CLSD EXC FOR HOME BASED HEL OPS EAST OF H15, DUE TO EVENT.
CREATED: 11 Mar 2024 07:36:00

B0306/24 B0306/24
Q) LSAS/QOBCE/V/M/AE/000/016/4658N00823E001
A) LSZC
B) 2403010000
C) 2505252359 EST
E) CRANE MARKED, LIGHTED, 465830N0082252E, 36.8M / 120.7FT AGL, 482.0M / 1581.4FT AMSL.
CREATED: 27 Feb 2024 16:29:00

B0205/24 B0205/24
Q) LSAS/QOBCE/V/M/AE/000/016/4658N00822E001
A) LSZC
B) 2402220000
C) 2509282359 EST
E) CRANE MARKED, LGTD, 465757N0082159E, 38.9M / 127.6FT AGL, 483.2M /1585.3FT AMSL.
CREATED: 06 Feb 2024 16:51:00

B0110/24 B0110/24
Q) LSAS/QOBCE/V/M/AE/000/016/4658N00823E001
A) LSZC
B) 2401290000
C) 2509292359 EST
E) CRANE MARKED, LGTD, 465824N0082257E, 37.1M / 121.7FT AGL, 481.8M / 1580.7FT AMSL.
CREATED: 22 Jan 2024 06:38:00

B1776/23 B1776/23 R B1262/23
Q) LSAS/QOBCE/V/M/AE/000/019/4659N00825E001
A) LSZC
B) 2311170645
C) 2405102359 EST
E) CRANE MARKED, LGTD, 465922N0082506E, 66.4M / 218.0FT AGL, 576.8M /1892.2FT AMSL.
CREATED: 17 Nov 2023 06:45:00

B1611/23 B1611/23 R B1578/23
Q) LSAS/QOBCE/V/M/AE/000/016/4659N00825E001
A) LSZC
B) 2310231251
C) 2406172359 EST
E) CRANE MARKED, LGTD, 465842N0082446E, 26.4M / 86.6FT AGL, 462.7M / 1518.0FT AMSL.
CREATED: 23 Oct 2023 12:51:00

FLÜGE

Anmelden
Timetable

DABS

Heute
Morgen

Richtung West (Pilatus)


Richtung Ost (Brunnen)



Richtung West (Pilatus)


Richtung Ost (Brunnen)


Richtung Nord (Luzern)


Richtung Süd (Engelberg)


Privacy Settings
We use cookies to enhance your experience while using our website. If you are using our Services via a browser you can restrict, block or remove cookies through your web browser settings. We also use content and scripts from third parties that may use tracking technologies. You can selectively provide your consent below to allow such third party embeds. For complete information about the cookies we use, data we collect and how we process them, please check our Privacy Policy
Youtube
Consent to display content from - Youtube
Vimeo
Consent to display content from - Vimeo
Google Maps
Consent to display content from - Google